createdAt,value
2022-08-26T00:01:29.173Z,42.72
2022-08-26T00:03:56.732Z,43.04
2022-08-26T00:06:23.539Z,42.87
2022-08-26T00:08:50.170Z,42.75
2022-08-26T00:11:26.379Z,42.73
2022-08-26T00:13:54.650Z,42.72
2022-08-26T00:16:21.699Z,42.64
2022-08-26T00:18:48.320Z,42.78
2022-08-26T00:21:16.253Z,42.97
2022-08-26T00:23:42.968Z,42.92
2022-08-26T00:26:09.683Z,43.09
2022-08-26T00:28:37.985Z,43.14
2022-08-26T00:31:07.134Z,42.98
2022-08-26T00:33:33.832Z,43.28
2022-08-26T00:36:01.679Z,43.10
2022-08-26T00:38:29.075Z,43.16
2022-08-26T00:40:56.803Z,43.14
2022-08-26T00:43:25.073Z,43.04
2022-08-26T00:45:56.889Z,43.15
2022-08-26T00:48:26.167Z,42.85
2022-08-26T00:51:01.919Z,43.19
2022-08-26T00:53:30.856Z,43.39
2022-08-26T00:56:23.190Z,43.17
2022-08-26T00:58:50.872Z,43.39
2022-08-26T01:01:18.179Z,43.85
2022-08-26T01:03:45.458Z,43.26
2022-08-26T01:06:13.130Z,43.41
2022-08-26T01:08:40.400Z,43.32
2022-08-26T01:11:08.114Z,43.65
2022-08-26T01:13:36.464Z,43.88
2022-08-26T01:16:04.547Z,43.44
2022-08-26T01:18:31.590Z,43.59
2022-08-26T01:21:14.332Z,43.65
2022-08-26T01:23:45.100Z,43.71
2022-08-26T01:26:31.354Z,43.65
2022-08-26T01:29:02.941Z,43.62
2022-08-26T01:31:35.059Z,44.16
2022-08-26T01:34:05.897Z,43.84
2022-08-26T01:36:32.785Z,43.84
2022-08-26T01:38:59.443Z,43.98
2022-08-26T01:41:27.161Z,44.24
2022-08-26T01:43:56.931Z,43.79
2022-08-26T01:46:26.402Z,43.94
2022-08-26T01:48:55.149Z,44.20
2022-08-26T01:51:23.503Z,43.99
2022-08-26T01:53:50.115Z,44.01
2022-08-26T01:56:16.693Z,43.83
2022-08-26T01:58:46.633Z,44.04
2022-08-26T02:01:13.627Z,43.88
2022-08-26T02:03:52.502Z,43.97
2022-08-26T02:06:19.756Z,44.10
2022-08-26T02:08:53.172Z,44.42
2022-08-26T02:11:19.960Z,44.14
2022-08-26T02:13:52.637Z,43.98
2022-08-26T02:16:22.932Z,44.35
2022-08-26T02:18:50.666Z,44.11
2022-08-26T02:21:19.956Z,44.11
2022-08-26T02:23:46.537Z,44.08
2022-08-26T02:26:19.483Z,44.05
2022-08-26T02:29:08.832Z,44.08
2022-08-26T02:31:35.643Z,44.14
2022-08-26T02:34:15.108Z,44.21
2022-08-26T02:36:41.859Z,44.51
2022-08-26T02:39:08.964Z,44.36
2022-08-26T02:41:35.740Z,44.33
2022-08-26T02:44:11.711Z,44.57
2022-08-26T02:46:39.212Z,44.29
2022-08-26T02:49:06.973Z,44.85
2022-08-26T02:51:33.723Z,44.57
2022-08-26T02:54:00.313Z,44.70
2022-08-26T02:56:28.122Z,44.28
2022-08-26T02:58:54.940Z,44.68
2022-08-26T03:01:24.132Z,44.46
2022-08-26T03:03:50.920Z,44.73
2022-08-26T03:06:18.197Z,44.97
2022-08-26T03:08:44.872Z,44.82
2022-08-26T03:11:11.679Z,44.63
2022-08-26T03:13:38.975Z,44.53
2022-08-26T03:16:06.454Z,44.69
2022-08-26T03:18:33.034Z,44.69
2022-08-26T03:21:05.725Z,44.60
2022-08-26T03:23:33.531Z,44.91
2022-08-26T03:26:01.457Z,45.05
2022-08-26T03:28:28.051Z,45.11
2022-08-26T03:30:55.004Z,44.80
2022-08-26T03:33:22.334Z,44.89
2022-08-26T03:35:50.717Z,44.76
2022-08-26T03:38:18.004Z,44.93
2022-08-26T03:40:44.642Z,44.71
2022-08-26T03:43:12.376Z,45.41
2022-08-26T03:45:39.502Z,45.11
2022-08-26T03:48:07.769Z,45.40
2022-08-26T03:50:35.931Z,44.83
2022-08-26T03:53:03.660Z,44.97
2022-08-26T03:55:32.455Z,45.12
2022-08-26T03:58:00.769Z,45.08
2022-08-26T04:00:27.414Z,45.46
2022-08-26T04:02:54.020Z,45.09
2022-08-26T04:05:22.764Z,45.27
2022-08-26T04:07:50.006Z,45.33
2022-08-26T04:10:20.047Z,45.27
2022-08-26T04:12:47.033Z,45.33
2022-08-26T04:15:16.420Z,45.22
2022-08-26T04:17:44.712Z,45.28
2022-08-26T04:20:13.971Z,45.12
2022-08-26T04:22:43.049Z,45.15
2022-08-26T04:25:09.920Z,45.26
2022-08-26T04:27:36.555Z,45.10
2022-08-26T04:30:04.630Z,45.32
2022-08-26T04:32:31.194Z,44.92
2022-08-26T04:34:57.819Z,45.35
2022-08-26T04:37:25.151Z,45.38
2022-08-26T04:39:54.605Z,45.48
2022-08-26T04:42:23.305Z,45.26
2022-08-26T04:44:52.784Z,45.21
2022-08-26T04:47:19.439Z,45.17
2022-08-26T04:49:46.018Z,45.15
2022-08-26T04:52:12.675Z,45.19
2022-08-26T04:54:39.328Z,45.43
2022-08-26T04:57:08.610Z,45.20
2022-08-26T04:59:39.071Z,45.29
2022-08-26T05:02:06.829Z,45.32
2022-08-26T05:04:33.803Z,45.61
2022-08-26T05:07:02.930Z,45.55
2022-08-26T05:09:29.704Z,45.39
2022-08-26T05:11:57.146Z,45.34
2022-08-26T05:14:23.947Z,45.60
2022-08-26T05:16:50.723Z,45.49
2022-08-26T05:19:19.187Z,45.40
2022-08-26T05:21:47.298Z,45.44
2022-08-26T05:24:14.289Z,45.62
2022-08-26T05:26:41.192Z,45.69
2022-08-26T05:29:08.069Z,45.44
2022-08-26T05:31:35.593Z,45.47
2022-08-26T05:34:04.610Z,45.24
2022-08-26T05:36:34.384Z,45.46
2022-08-26T05:39:02.670Z,45.63
2022-08-26T05:41:34.324Z,45.63
2022-08-26T05:44:06.060Z,45.82
2022-08-26T05:46:33.582Z,45.70
2022-08-26T05:49:01.081Z,45.85
2022-08-26T05:51:27.685Z,45.79
2022-08-26T05:53:57.111Z,45.80
2022-08-26T05:56:26.150Z,45.73
2022-08-26T05:58:53.719Z,45.60
2022-08-26T06:01:26.118Z,45.46
2022-08-26T06:03:55.903Z,45.63
2022-08-26T06:06:34.619Z,45.63
2022-08-26T06:09:05.061Z,45.62
2022-08-26T06:11:32.612Z,45.92
2022-08-26T06:14:03.756Z,45.75
2022-08-26T06:16:33.503Z,45.65
2022-08-26T06:19:02.770Z,45.99
2022-08-26T06:21:35.048Z,45.56
2022-08-26T06:24:27.255Z,45.85
2022-08-26T06:26:56.484Z,45.58
2022-08-26T06:29:25.859Z,45.89
2022-08-26T06:31:53.752Z,45.94
2022-08-26T06:34:20.376Z,46.04
2022-08-26T06:36:47.415Z,46.04
2022-08-26T06:39:16.446Z,46.01
2022-08-26T06:41:44.907Z,45.67
2022-08-26T06:44:13.003Z,45.88
2022-08-26T06:46:40.087Z,45.71
2022-08-26T06:49:07.007Z,46.20
2022-08-26T06:51:36.356Z,45.78
2022-08-26T06:54:04.731Z,46.08
2022-08-26T06:56:36.752Z,46.54
2022-08-26T06:59:04.141Z,46.15
2022-08-26T07:01:37.900Z,46.40
2022-08-26T07:04:10.487Z,46.13
2022-08-26T07:06:39.852Z,46.30
2022-08-26T07:09:09.854Z,46.44
2022-08-26T07:11:38.183Z,46.61
2022-08-26T07:14:05.944Z,46.44
2022-08-26T07:16:33.259Z,46.68
2022-08-26T07:18:59.852Z,46.31
2022-08-26T07:21:29.990Z,46.74
2022-08-26T07:24:01.209Z,46.62
2022-08-26T07:26:30.260Z,46.61
2022-08-26T07:28:58.041Z,46.57
2022-08-26T07:31:27.525Z,46.64
2022-08-26T07:33:54.251Z,46.72
2022-08-26T07:36:21.887Z,46.82
2022-08-26T07:38:48.602Z,46.71
2022-08-26T07:41:17.455Z,46.80
2022-08-26T07:43:44.054Z,46.75
2022-08-26T07:46:16.484Z,46.50
2022-08-26T07:48:46.003Z,46.65
2022-08-26T07:51:15.012Z,46.50
2022-08-26T07:53:47.961Z,46.52
2022-08-26T07:56:18.959Z,46.38
2022-08-26T07:58:48.970Z,46.63
2022-08-26T08:01:18.148Z,46.53
2022-08-26T08:03:45.408Z,46.41
2022-08-26T08:06:12.144Z,46.49
2022-08-26T08:08:41.411Z,46.25
2022-08-26T08:11:08.024Z,46.34
2022-08-26T08:13:37.437Z,46.27
2022-08-26T08:16:05.059Z,46.16
2022-08-26T08:18:31.871Z,45.96
2022-08-26T08:21:21.225Z,46.25
2022-08-26T08:23:47.141Z,46.33
2022-08-26T08:26:14.149Z,45.88
2022-08-26T08:28:40.899Z,46.05
2022-08-26T08:31:08.254Z,45.98
2022-08-26T08:33:35.301Z,46.04
2022-08-26T08:36:02.015Z,46.04
2022-08-26T08:38:28.771Z,45.78
2022-08-26T08:40:55.379Z,45.71
2022-08-26T08:43:37.514Z,45.78
2022-08-26T08:46:09.233Z,45.87
2022-08-26T08:48:39.294Z,45.67
2022-08-26T08:51:30.387Z,45.92
2022-08-26T08:53:57.032Z,45.81
2022-08-26T08:56:27.827Z,46.28
2022-08-26T08:59:34.399Z,46.18
2022-08-26T09:02:30.643Z,45.97
2022-08-26T09:05:15.723Z,46.09
2022-08-26T09:08:11.373Z,45.89
2022-08-26T09:10:45.322Z,46.47
2022-08-26T09:13:16.776Z,46.23
2022-08-26T09:16:08.341Z,46.25
2022-08-26T09:18:57.599Z,46.37
2022-08-26T09:21:25.472Z,46.31
2022-08-26T09:23:55.464Z,46.69
2022-08-26T09:26:29.281Z,46.30
2022-08-26T09:29:08.974Z,46.25
2022-08-26T09:31:37.048Z,46.38
2022-08-26T09:34:27.448Z,46.34
2022-08-26T09:36:58.685Z,46.37
2022-08-26T09:39:28.073Z,46.14
2022-08-26T09:42:16.831Z,46.18
2022-08-26T09:44:57.133Z,46.17
2022-08-26T09:47:34.620Z,46.58
2022-08-26T09:50:12.566Z,46.40
2022-08-26T09:52:40.663Z,46.29
2022-08-26T09:55:09.371Z,46.53
2022-08-26T09:57:45.704Z,46.33
2022-08-26T10:00:23.619Z,46.52
2022-08-26T10:02:52.740Z,46.59
2022-08-26T10:05:31.002Z,46.23
2022-08-26T10:07:58.617Z,46.62
2022-08-26T10:10:38.209Z,46.50
2022-08-26T10:13:16.716Z,46.27
2022-08-26T10:16:07.092Z,46.24
2022-08-26T10:18:40.802Z,46.36
2022-08-26T10:21:22.770Z,45.93
2022-08-26T10:23:52.186Z,45.85
2022-08-26T10:26:21.612Z,46.05
2022-08-26T10:28:53.048Z,46.02
2022-08-26T10:31:27.865Z,45.75
2022-08-26T10:33:58.788Z,45.89
2022-08-26T10:37:13.397Z,45.85
2022-08-26T10:39:57.200Z,45.75
2022-08-26T10:42:48.939Z,45.78
2022-08-26T10:45:22.236Z,45.92
2022-08-26T10:47:54.557Z,45.92
2022-08-26T10:50:30.706Z,45.97
2022-08-26T10:53:07.619Z,45.98
2022-08-26T10:55:41.136Z,45.72
2022-08-26T10:58:26.090Z,45.62
2022-08-26T11:01:22.640Z,45.83
2022-08-26T11:04:25.130Z,45.76
2022-08-26T11:07:29.166Z,45.75
2022-08-26T11:10:20.282Z,45.52
2022-08-26T11:12:52.591Z,45.91
2022-08-26T11:15:19.950Z,45.76
2022-08-26T11:17:51.371Z,45.43
2022-08-26T11:20:31.070Z,45.57
2022-08-26T11:23:20.325Z,45.87
2022-08-26T11:25:57.490Z,45.85
2022-08-26T11:28:33.736Z,46.02
2022-08-26T11:31:00.362Z,45.77
2022-08-26T11:33:50.986Z,45.79
2022-08-26T11:36:49.090Z,45.91
2022-08-26T11:39:15.583Z,46.11
2022-08-26T11:41:52.698Z,45.86
2022-08-26T11:44:24.055Z,46.14
2022-08-26T11:46:59.620Z,46.04
2022-08-26T11:49:28.301Z,46.12
2022-08-26T11:52:20.743Z,46.03
2022-08-26T11:55:06.541Z,46.22
2022-08-26T11:57:34.742Z,46.18
2022-08-26T12:00:03.672Z,46.03
2022-08-26T12:02:30.245Z,46.25
2022-08-26T12:04:57.022Z,46.06
2022-08-26T12:07:27.049Z,46.03
2022-08-26T12:10:02.261Z,45.95
2022-08-26T12:12:34.938Z,45.94
2022-08-26T12:15:12.576Z,46.25
2022-08-26T12:17:40.732Z,45.82
2022-08-26T12:20:45.949Z,46.00
2022-08-26T12:23:40.144Z,45.85
2022-08-26T12:26:25.099Z,46.06
2022-08-26T12:29:19.699Z,46.29
2022-08-26T12:31:47.851Z,46.45
2022-08-26T12:34:18.253Z,46.48
2022-08-26T12:36:54.941Z,46.45
2022-08-26T12:39:36.259Z,46.40
2022-08-26T12:42:03.923Z,46.32
2022-08-26T12:44:53.250Z,46.43
2022-08-26T12:47:44.005Z,46.39
2022-08-26T12:50:30.396Z,46.44
2022-08-26T12:53:03.368Z,46.47
2022-08-26T12:55:32.903Z,46.75
2022-08-26T12:58:22.918Z,46.31
2022-08-26T13:00:53.838Z,46.70
2022-08-26T13:03:32.594Z,46.26
2022-08-26T13:06:22.274Z,46.52
2022-08-26T13:09:00.740Z,46.25
2022-08-26T13:11:33.428Z,46.32
2022-08-26T13:14:24.111Z,46.08
2022-08-26T13:16:51.450Z,46.09
2022-08-26T13:19:23.440Z,46.04
2022-08-26T13:21:55.384Z,46.10
2022-08-26T13:24:28.003Z,45.89
2022-08-26T13:26:54.623Z,45.61
2022-08-26T13:29:21.271Z,45.92
2022-08-26T13:31:48.052Z,45.79
2022-08-26T13:34:20.753Z,45.88
2022-08-26T13:36:49.565Z,45.91
2022-08-26T13:39:17.408Z,45.92
2022-08-26T13:41:44.100Z,45.96
2022-08-26T13:44:11.033Z,45.59
2022-08-26T13:46:38.207Z,45.94
2022-08-26T13:49:05.012Z,45.88
2022-08-26T13:51:32.047Z,45.92
2022-08-26T13:53:59.019Z,46.14
2022-08-26T13:56:27.741Z,46.01
2022-08-26T13:58:54.460Z,45.89
2022-08-26T14:01:21.076Z,45.97
2022-08-26T14:03:47.888Z,45.95
2022-08-26T14:06:15.019Z,45.80
2022-08-26T14:08:42.085Z,45.75
2022-08-26T14:11:09.109Z,45.58
2022-08-26T14:13:36.219Z,45.76
2022-08-26T14:16:07.080Z,45.91
2022-08-26T14:18:41.085Z,45.64
2022-08-26T14:21:09.258Z,45.99
2022-08-26T14:23:35.867Z,45.73
2022-08-26T14:26:04.050Z,45.76
2022-08-26T14:28:30.705Z,45.86
2022-08-26T14:30:58.291Z,46.03
2022-08-26T14:33:27.973Z,45.82
2022-08-26T14:36:14.682Z,45.80
2022-08-26T14:38:41.510Z,45.90
2022-08-26T14:41:08.119Z,45.81
2022-08-26T14:43:34.740Z,46.00
2022-08-26T14:46:01.368Z,45.61
2022-08-26T14:48:27.987Z,46.17
2022-08-26T14:50:54.596Z,45.77
2022-08-26T14:53:39.598Z,46.03
2022-08-26T14:56:06.211Z,45.90
2022-08-26T14:58:35.006Z,45.96
2022-08-26T15:01:04.427Z,45.86
2022-08-26T15:03:31.196Z,45.90
2022-08-26T15:05:58.033Z,45.75
2022-08-26T15:08:25.451Z,45.93
2022-08-26T15:10:52.085Z,45.79
2022-08-26T15:13:19.145Z,45.73
2022-08-26T15:15:46.570Z,45.83
2022-08-26T15:18:13.276Z,45.73
2022-08-26T15:20:39.961Z,45.61
2022-08-26T15:23:07.446Z,45.69
2022-08-26T15:25:34.240Z,45.52
2022-08-26T15:28:00.929Z,45.61
2022-08-26T15:30:27.628Z,45.37
2022-08-26T15:32:54.221Z,45.68
2022-08-26T15:35:20.829Z,45.38
2022-08-26T15:37:47.482Z,45.50
2022-08-26T15:40:14.248Z,45.38
2022-08-26T15:42:40.956Z,45.37
2022-08-26T15:45:07.904Z,45.34
2022-08-26T15:47:55.409Z,45.52
2022-08-26T15:50:21.422Z,45.34
2022-08-26T15:52:48.103Z,45.21
2022-08-26T15:55:14.764Z,45.24
2022-08-26T15:57:41.383Z,45.11
2022-08-26T16:00:10.066Z,45.00
2022-08-26T16:02:36.684Z,44.92
2022-08-26T16:05:03.312Z,45.06
2022-08-26T16:07:31.780Z,45.19
2022-08-26T16:09:58.517Z,45.10
2022-08-26T16:12:25.146Z,45.15
2022-08-26T16:14:52.712Z,44.96
2022-08-26T16:17:20.015Z,44.95
2022-08-26T16:19:46.783Z,44.92
2022-08-26T16:22:13.381Z,44.93
2022-08-26T16:24:39.990Z,44.99
2022-08-26T16:27:06.728Z,45.12
2022-08-26T16:29:33.362Z,44.60
2022-08-26T16:32:00.035Z,44.78
2022-08-26T16:34:26.856Z,44.99
2022-08-26T16:36:53.532Z,44.81
2022-08-26T16:39:20.159Z,44.85
2022-08-26T16:41:46.797Z,44.80
2022-08-26T16:44:13.448Z,44.67
2022-08-26T16:46:41.256Z,44.88
2022-08-26T16:49:08.069Z,45.13
2022-08-26T16:51:38.316Z,45.20
2022-08-26T16:54:07.053Z,45.11
2022-08-26T16:56:34.521Z,45.13
2022-08-26T16:59:03.214Z,45.21
2022-08-26T17:01:30.175Z,45.01
2022-08-26T17:03:57.176Z,45.04
2022-08-26T17:06:23.841Z,45.34
2022-08-26T17:08:50.455Z,44.80
2022-08-26T17:11:17.235Z,45.22
2022-08-26T17:13:43.912Z,45.03
2022-08-26T17:16:14.180Z,45.15
2022-08-26T17:18:41.344Z,45.07
2022-08-26T17:21:11.271Z,45.03
2022-08-26T17:23:38.815Z,45.12
2022-08-26T17:26:05.767Z,44.93
2022-08-26T17:28:32.731Z,44.78
2022-08-26T17:30:59.782Z,45.21
2022-08-26T17:33:26.624Z,44.97
2022-08-26T17:35:53.807Z,44.92
2022-08-26T17:38:21.233Z,45.05
2022-08-26T17:40:47.861Z,44.87
2022-08-26T17:43:14.492Z,45.02
2022-08-26T17:45:41.487Z,45.19
2022-08-26T17:48:08.456Z,44.96
2022-08-26T17:50:35.677Z,44.93
2022-08-26T17:53:02.254Z,45.22
2022-08-26T17:55:29.141Z,44.77
2022-08-26T17:57:55.707Z,44.93
2022-08-26T18:00:26.574Z,44.86
2022-08-26T18:02:56.498Z,44.73
2022-08-26T18:05:23.298Z,44.83
2022-08-26T18:07:51.465Z,44.70
2022-08-26T18:10:19.706Z,44.65
2022-08-26T18:12:46.779Z,44.62
2022-08-26T18:15:15.204Z,45.04
2022-08-26T18:17:41.939Z,44.81
2022-08-26T18:20:15.641Z,44.70
2022-08-26T18:22:42.391Z,44.82
2022-08-26T18:25:09.629Z,44.96
2022-08-26T18:27:37.422Z,45.07
2022-08-26T18:30:06.000Z,44.59
2022-08-26T18:32:32.581Z,45.08
2022-08-26T18:34:59.582Z,45.39
2022-08-26T18:37:29.418Z,45.13
2022-08-26T18:39:59.440Z,44.44
2022-08-26T18:42:26.560Z,45.15
2022-08-26T18:44:53.483Z,45.22
2022-08-26T18:47:20.143Z,45.05
2022-08-26T18:49:47.308Z,44.98
2022-08-26T18:52:13.969Z,44.73
2022-08-26T18:54:40.951Z,45.01
2022-08-26T18:57:07.517Z,44.74
2022-08-26T18:59:34.093Z,44.68
2022-08-26T19:02:00.798Z,44.80
2022-08-26T19:04:27.595Z,44.77
2022-08-26T19:06:54.277Z,44.63
2022-08-26T19:09:21.056Z,44.93
2022-08-26T19:11:49.632Z,44.68
2022-08-26T19:14:17.008Z,44.51
2022-08-26T19:16:47.868Z,44.71
2022-08-26T19:19:15.241Z,44.52
2022-08-26T19:21:41.899Z,44.73
2022-08-26T19:24:15.390Z,44.66
2022-08-26T19:26:43.958Z,44.37
2022-08-26T19:29:11.453Z,44.72
2022-08-26T19:31:38.044Z,44.90
2022-08-26T19:34:05.368Z,44.92
2022-08-26T19:36:32.792Z,45.03
2022-08-26T19:39:00.253Z,45.15
2022-08-26T19:41:36.925Z,44.96
2022-08-26T19:44:07.610Z,45.14
2022-08-26T19:46:34.569Z,44.95
2022-08-26T19:49:01.181Z,45.01
2022-08-26T19:51:29.747Z,44.87
2022-08-26T19:53:57.647Z,45.12
2022-08-26T19:56:24.540Z,44.89
2022-08-26T19:58:51.352Z,45.07
2022-08-26T20:01:18.756Z,45.05
2022-08-26T20:03:46.171Z,45.16
2022-08-26T20:06:14.568Z,45.25
2022-08-26T20:08:41.801Z,45.16
2022-08-26T20:11:12.203Z,45.35
2022-08-26T20:13:39.786Z,45.17
2022-08-26T20:16:06.895Z,45.44
2022-08-26T20:18:53.056Z,45.47
2022-08-26T20:21:29.270Z,45.27
2022-08-26T20:24:00.495Z,45.42
2022-08-26T20:26:28.649Z,45.36
2022-08-26T20:28:55.663Z,45.21
2022-08-26T20:31:22.354Z,45.65
2022-08-26T20:33:50.576Z,45.68
2022-08-26T20:36:20.251Z,45.28
2022-08-26T20:38:47.639Z,45.35
2022-08-26T20:41:14.840Z,45.31
2022-08-26T20:43:42.853Z,45.36
2022-08-26T20:46:18.810Z,45.65
2022-08-26T20:48:46.707Z,45.68
2022-08-26T20:51:13.441Z,45.68
2022-08-26T20:53:40.055Z,45.79
2022-08-26T20:56:09.032Z,45.35
2022-08-26T20:58:36.180Z,45.53
2022-08-26T21:01:07.305Z,45.37
2022-08-26T21:03:35.302Z,45.27
2022-08-26T21:06:01.919Z,45.33
2022-08-26T21:08:28.519Z,45.36
2022-08-26T21:10:55.137Z,45.50
2022-08-26T21:13:22.845Z,45.33
2022-08-26T21:15:49.443Z,45.32
2022-08-26T21:18:16.141Z,45.48
2022-08-26T21:20:42.822Z,45.20
2022-08-26T21:23:09.457Z,45.64
2022-08-26T21:25:36.057Z,45.24
2022-08-26T21:28:02.832Z,45.00
2022-08-26T21:30:29.531Z,45.38
2022-08-26T21:32:56.162Z,45.16
2022-08-26T21:35:23.012Z,45.04
2022-08-26T21:37:50.223Z,44.89
2022-08-26T21:40:17.074Z,45.24
2022-08-26T21:42:43.810Z,45.04
2022-08-26T21:45:10.814Z,44.93
2022-08-26T21:47:37.471Z,44.96
2022-08-26T21:50:04.573Z,44.98
2022-08-26T21:52:31.306Z,44.95
2022-08-26T21:54:59.736Z,45.20
2022-08-26T21:57:27.947Z,45.22
2022-08-26T21:59:54.867Z,45.07
2022-08-26T22:02:22.593Z,45.09
2022-08-26T22:04:49.666Z,44.96
2022-08-26T22:07:18.309Z,45.25
2022-08-26T22:09:44.915Z,45.02
2022-08-26T22:12:12.409Z,45.23
2022-08-26T22:14:39.793Z,45.36
2022-08-26T22:17:06.742Z,45.30
2022-08-26T22:19:34.080Z,45.20
2022-08-26T22:22:13.063Z,45.30
2022-08-26T22:24:40.032Z,45.48
2022-08-26T22:27:06.674Z,45.64
2022-08-26T22:29:33.407Z,45.61
2022-08-26T22:32:01.038Z,45.56
2022-08-26T22:34:28.196Z,45.68
2022-08-26T22:36:54.894Z,45.05
2022-08-26T22:39:25.280Z,45.56
2022-08-26T22:41:52.872Z,45.62
2022-08-26T22:44:22.144Z,45.58
2022-08-26T22:46:49.760Z,45.63
2022-08-26T22:49:16.627Z,45.92
2022-08-26T22:51:44.652Z,45.59
2022-08-26T22:54:11.636Z,45.68
2022-08-26T22:56:38.493Z,45.73
2022-08-26T22:59:07.850Z,45.52
2022-08-26T23:01:39.737Z,45.79
2022-08-26T23:04:07.183Z,45.80
2022-08-26T23:06:38.118Z,46.01
2022-08-26T23:09:06.139Z,45.91
2022-08-26T23:11:33.039Z,45.82
2022-08-26T23:14:02.255Z,45.81
2022-08-26T23:16:39.484Z,45.70
2022-08-26T23:19:08.182Z,45.83
2022-08-26T23:21:34.965Z,45.91
2022-08-26T23:24:02.375Z,45.94
2022-08-26T23:26:28.989Z,46.15
2022-08-26T23:28:55.760Z,46.04
2022-08-26T23:31:22.459Z,46.16
2022-08-26T23:34:07.633Z,46.16
2022-08-26T23:36:34.963Z,45.97
2022-08-26T23:39:02.104Z,45.87
2022-08-26T23:41:28.705Z,46.10
2022-08-26T23:43:55.349Z,46.21
2022-08-26T23:46:22.196Z,46.27
2022-08-26T23:48:48.819Z,46.11
2022-08-26T23:51:33.844Z,45.87
2022-08-26T23:54:00.489Z,46.19
2022-08-26T23:56:27.128Z,46.22
2022-08-26T23:58:54.423Z,46.33
